sensor_id;sensor_type;location;lat;lon;timestamp;temperature;humidity
69543;SHT31;56762;49.494;11.768;2023-09-30T00:01:28;16.58;80.69
69543;SHT31;56762;49.494;11.768;2023-09-30T00:03:55;16.57;80.60
69543;SHT31;56762;49.494;11.768;2023-09-30T00:06:24;16.56;80.48
69543;SHT31;56762;49.494;11.768;2023-09-30T00:08:53;16.58;81.02
69543;SHT31;56762;49.494;11.768;2023-09-30T00:11:23;16.56;80.82
69543;SHT31;56762;49.494;11.768;2023-09-30T00:13:51;16.58;80.82
69543;SHT31;56762;49.494;11.768;2023-09-30T00:16:19;16.61;80.66
69543;SHT31;56762;49.494;11.768;2023-09-30T00:18:47;16.61;80.85
69543;SHT31;56762;49.494;11.768;2023-09-30T00:21:15;16.63;80.79
69543;SHT31;56762;49.494;11.768;2023-09-30T00:23:43;16.68;80.87
69543;SHT31;56762;49.494;11.768;2023-09-30T00:26:12;16.67;81.06
69543;SHT31;56762;49.494;11.768;2023-09-30T00:28:40;16.67;81.22
69543;SHT31;56762;49.494;11.768;2023-09-30T00:31:08;16.67;81.45
69543;SHT31;56762;49.494;11.768;2023-09-30T00:33:37;16.67;81.50
69543;SHT31;56762;49.494;11.768;2023-09-30T00:36:06;16.67;81.52
69543;SHT31;56762;49.494;11.768;2023-09-30T00:38:35;16.68;81.45
69543;SHT31;56762;49.494;11.768;2023-09-30T00:41:03;16.67;81.75
69543;SHT31;56762;49.494;11.768;2023-09-30T00:43:32;16.65;82.13
69543;SHT31;56762;49.494;11.768;2023-09-30T00:46:06;16.64;82.43
69543;SHT31;56762;49.494;11.768;2023-09-30T00:48:38;16.65;82.38
69543;SHT31;56762;49.494;11.768;2023-09-30T00:51:06;16.65;82.04
69543;SHT31;56762;49.494;11.768;2023-09-30T00:53:35;16.65;82.14
69543;SHT31;56762;49.494;11.768;2023-09-30T00:56:03;16.64;82.35
69543;SHT31;56762;49.494;11.768;2023-09-30T00:58:33;16.65;82.51
69543;SHT31;56762;49.494;11.768;2023-09-30T01:01:02;16.64;82.78
69543;SHT31;56762;49.494;11.768;2023-09-30T01:03:30;16.64;82.86
69543;SHT31;56762;49.494;11.768;2023-09-30T01:05:58;16.65;82.98
69543;SHT31;56762;49.494;11.768;2023-09-30T01:08:26;16.63;82.70
69543;SHT31;56762;49.494;11.768;2023-09-30T01:10:54;16.63;83.15
69543;SHT31;56762;49.494;11.768;2023-09-30T01:13:23;16.63;83.24
69543;SHT31;56762;49.494;11.768;2023-09-30T01:15:52;16.63;83.26
69543;SHT31;56762;49.494;11.768;2023-09-30T01:18:20;16.61;83.21
69543;SHT31;56762;49.494;11.768;2023-09-30T01:20:48;16.63;83.31
69543;SHT31;56762;49.494;11.768;2023-09-30T01:23:20;16.63;83.45
69543;SHT31;56762;49.494;11.768;2023-09-30T01:25:48;16.60;83.35
69543;SHT31;56762;49.494;11.768;2023-09-30T01:28:16;16.64;83.31
69543;SHT31;56762;49.494;11.768;2023-09-30T01:30:44;16.63;83.43
69543;SHT31;56762;49.494;11.768;2023-09-30T01:33:11;16.67;83.43
69543;SHT31;56762;49.494;11.768;2023-09-30T01:35:40;16.65;83.45
69543;SHT31;56762;49.494;11.768;2023-09-30T01:38:10;16.68;83.63
69543;SHT31;56762;49.494;11.768;2023-09-30T01:40:40;16.68;83.62
69543;SHT31;56762;49.494;11.768;2023-09-30T01:43:08;16.71;83.59
69543;SHT31;56762;49.494;11.768;2023-09-30T01:45:37;16.68;83.80
69543;SHT31;56762;49.494;11.768;2023-09-30T01:48:05;16.71;83.64
69543;SHT31;56762;49.494;11.768;2023-09-30T01:50:33;16.71;83.71
69543;SHT31;56762;49.494;11.768;2023-09-30T01:53:01;16.72;83.86
69543;SHT31;56762;49.494;11.768;2023-09-30T01:55:29;16.72;83.93
69543;SHT31;56762;49.494;11.768;2023-09-30T01:57:58;16.72;83.82
69543;SHT31;56762;49.494;11.768;2023-09-30T02:00:26;16.74;83.83
69543;SHT31;56762;49.494;11.768;2023-09-30T02:02:54;16.72;83.92
69543;SHT31;56762;49.494;11.768;2023-09-30T02:05:23;16.74;83.89
69543;SHT31;56762;49.494;11.768;2023-09-30T02:07:51;16.74;83.94
69543;SHT31;56762;49.494;11.768;2023-09-30T02:10:19;16.74;84.03
69543;SHT31;56762;49.494;11.768;2023-09-30T02:12:47;16.75;83.91
69543;SHT31;56762;49.494;11.768;2023-09-30T02:15:16;16.75;84.07
69543;SHT31;56762;49.494;11.768;2023-09-30T02:17:44;16.74;84.07
69543;SHT31;56762;49.494;11.768;2023-09-30T02:20:16;16.75;84.09
69543;SHT31;56762;49.494;11.768;2023-09-30T02:22:46;16.77;84.17
69543;SHT31;56762;49.494;11.768;2023-09-30T02:25:14;16.78;84.32
69543;SHT31;56762;49.494;11.768;2023-09-30T02:27:42;16.77;84.32
69543;SHT31;56762;49.494;11.768;2023-09-30T02:30:12;16.74;84.33
69543;SHT31;56762;49.494;11.768;2023-09-30T02:32:42;16.77;84.42
69543;SHT31;56762;49.494;11.768;2023-09-30T02:35:13;16.75;84.35
69543;SHT31;56762;49.494;11.768;2023-09-30T02:37:42;16.77;84.36
69543;SHT31;56762;49.494;11.768;2023-09-30T02:40:10;16.77;84.31
69543;SHT31;56762;49.494;11.768;2023-09-30T02:42:41;16.77;84.44
69543;SHT31;56762;49.494;11.768;2023-09-30T02:45:11;16.77;84.34
69543;SHT31;56762;49.494;11.768;2023-09-30T02:47:39;16.71;84.51
69543;SHT31;56762;49.494;11.768;2023-09-30T02:50:09;16.72;84.65
69543;SHT31;56762;49.494;11.768;2023-09-30T02:52:38;16.71;84.41
69543;SHT31;56762;49.494;11.768;2023-09-30T02:55:08;16.70;84.59
69543;SHT31;56762;49.494;11.768;2023-09-30T02:57:36;16.68;84.79
69543;SHT31;56762;49.494;11.768;2023-09-30T03:00:08;16.65;84.99
69543;SHT31;56762;49.494;11.768;2023-09-30T03:02:48;16.61;84.91
69543;SHT31;56762;49.494;11.768;2023-09-30T03:05:17;16.61;84.69
69543;SHT31;56762;49.494;11.768;2023-09-30T03:07:45;16.60;84.80
69543;SHT31;56762;49.494;11.768;2023-09-30T03:10:13;16.58;84.79
69543;SHT31;56762;49.494;11.768;2023-09-30T03:12:47;16.57;84.45
69543;SHT31;56762;49.494;11.768;2023-09-30T03:15:15;16.57;84.32
69543;SHT31;56762;49.494;11.768;2023-09-30T03:17:44;16.56;84.83
69543;SHT31;56762;49.494;11.768;2023-09-30T03:20:12;16.54;85.06
69543;SHT31;56762;49.494;11.768;2023-09-30T03:22:43;16.56;85.32
69543;SHT31;56762;49.494;11.768;2023-09-30T03:25:14;16.53;85.26
69543;SHT31;56762;49.494;11.768;2023-09-30T03:27:44;16.51;85.52
69543;SHT31;56762;49.494;11.768;2023-09-30T03:30:13;16.50;85.62
69543;SHT31;56762;49.494;11.768;2023-09-30T03:32:42;16.50;85.84
69543;SHT31;56762;49.494;11.768;2023-09-30T03:35:11;16.50;85.64
69543;SHT31;56762;49.494;11.768;2023-09-30T03:37:43;16.48;85.92
69543;SHT31;56762;49.494;11.768;2023-09-30T03:40:12;16.50;85.99
69543;SHT31;56762;49.494;11.768;2023-09-30T03:42:41;16.50;85.95
69543;SHT31;56762;49.494;11.768;2023-09-30T03:45:11;16.48;86.03
69543;SHT31;56762;49.494;11.768;2023-09-30T03:47:42;16.48;86.18
69543;SHT31;56762;49.494;11.768;2023-09-30T03:50:10;16.48;86.05
69543;SHT31;56762;49.494;11.768;2023-09-30T03:52:44;16.47;86.27
69543;SHT31;56762;49.494;11.768;2023-09-30T03:55:14;16.44;86.29
69543;SHT31;56762;49.494;11.768;2023-09-30T03:57:42;16.47;85.88
69543;SHT31;56762;49.494;11.768;2023-09-30T04:00:13;16.48;85.87
69543;SHT31;56762;49.494;11.768;2023-09-30T04:02:45;16.47;85.73
69543;SHT31;56762;49.494;11.768;2023-09-30T04:05:18;16.50;86.19
69543;SHT31;56762;49.494;11.768;2023-09-30T04:07:47;16.48;86.31
69543;SHT31;56762;49.494;11.768;2023-09-30T04:10:17;16.50;86.36
69543;SHT31;56762;49.494;11.768;2023-09-30T04:12:47;16.48;86.03
69543;SHT31;56762;49.494;11.768;2023-09-30T04:15:15;16.47;85.93
69543;SHT31;56762;49.494;11.768;2023-09-30T04:17:43;16.48;85.92
69543;SHT31;56762;49.494;11.768;2023-09-30T04:20:11;16.51;86.20
69543;SHT31;56762;49.494;11.768;2023-09-30T04:22:45;16.50;85.74
69543;SHT31;56762;49.494;11.768;2023-09-30T04:25:17;16.50;85.57
69543;SHT31;56762;49.494;11.768;2023-09-30T04:27:46;16.51;85.62
69543;SHT31;56762;49.494;11.768;2023-09-30T04:30:15;16.50;85.83
69543;SHT31;56762;49.494;11.768;2023-09-30T04:32:44;16.48;85.92
69543;SHT31;56762;49.494;11.768;2023-09-30T04:35:12;16.53;85.82
69543;SHT31;56762;49.494;11.768;2023-09-30T04:37:41;16.50;86.14
69543;SHT31;56762;49.494;11.768;2023-09-30T04:40:10;16.47;86.52
69543;SHT31;56762;49.494;11.768;2023-09-30T04:42:44;16.46;86.80
69543;SHT31;56762;49.494;11.768;2023-09-30T04:45:14;16.43;86.94
69543;SHT31;56762;49.494;11.768;2023-09-30T04:47:43;16.44;87.11
69543;SHT31;56762;49.494;11.768;2023-09-30T04:50:12;16.43;87.23
69543;SHT31;56762;49.494;11.768;2023-09-30T04:52:42;16.41;87.47
69543;SHT31;56762;49.494;11.768;2023-09-30T04:55:12;16.40;87.73
69543;SHT31;56762;49.494;11.768;2023-09-30T04:57:44;16.41;87.61
69543;SHT31;56762;49.494;11.768;2023-09-30T05:00:16;16.37;87.74
69543;SHT31;56762;49.494;11.768;2023-09-30T05:02:44;16.39;87.97
69543;SHT31;56762;49.494;11.768;2023-09-30T05:05:13;16.36;88.05
69543;SHT31;56762;49.494;11.768;2023-09-30T05:07:41;16.37;88.25
69543;SHT31;56762;49.494;11.768;2023-09-30T05:10:10;16.37;88.34
69543;SHT31;56762;49.494;11.768;2023-09-30T05:12:40;16.37;88.53
69543;SHT31;56762;49.494;11.768;2023-09-30T05:15:15;16.34;88.76
69543;SHT31;56762;49.494;11.768;2023-09-30T05:17:44;16.34;88.94
69543;SHT31;56762;49.494;11.768;2023-09-30T05:20:13;16.33;89.03
69543;SHT31;56762;49.494;11.768;2023-09-30T05:22:44;16.30;89.31
69543;SHT31;56762;49.494;11.768;2023-09-30T05:25:13;16.31;89.34
69543;SHT31;56762;49.494;11.768;2023-09-30T05:27:43;16.31;89.45
69543;SHT31;56762;49.494;11.768;2023-09-30T05:30:11;16.30;89.48
69543;SHT31;56762;49.494;11.768;2023-09-30T05:32:43;16.31;89.72
69543;SHT31;56762;49.494;11.768;2023-09-30T05:35:13;16.29;89.77
69543;SHT31;56762;49.494;11.768;2023-09-30T05:37:45;16.24;89.84
69543;SHT31;56762;49.494;11.768;2023-09-30T05:40:13;16.27;89.90
69543;SHT31;56762;49.494;11.768;2023-09-30T05:42:49;16.24;90.09
69543;SHT31;56762;49.494;11.768;2023-09-30T05:45:21;16.20;89.08
69543;SHT31;56762;49.494;11.768;2023-09-30T05:47:51;16.16;87.98
69543;SHT31;56762;49.494;11.768;2023-09-30T05:50:24;16.10;86.89
69543;SHT31;56762;49.494;11.768;2023-09-30T05:52:55;15.96;86.71
69543;SHT31;56762;49.494;11.768;2023-09-30T05:55:25;15.89;86.87
69543;SHT31;56762;49.494;11.768;2023-09-30T05:57:54;15.78;87.02
69543;SHT31;56762;49.494;11.768;2023-09-30T06:00:22;15.63;86.77
69543;SHT31;56762;49.494;11.768;2023-09-30T06:02:57;15.48;87.23
69543;SHT31;56762;49.494;11.768;2023-09-30T06:05:25;15.37;88.05
69543;SHT31;56762;49.494;11.768;2023-09-30T06:08:03;15.28;88.71
69543;SHT31;56762;49.494;11.768;2023-09-30T06:10:31;15.28;87.91
69543;SHT31;56762;49.494;11.768;2023-09-30T06:13:05;15.18;88.31
69543;SHT31;56762;49.494;11.768;2023-09-30T06:15:37;15.12;88.81
69543;SHT31;56762;49.494;11.768;2023-09-30T06:18:15;15.10;88.51
69543;SHT31;56762;49.494;11.768;2023-09-30T06:20:45;15.07;88.52
69543;SHT31;56762;49.494;11.768;2023-09-30T06:23:13;15.06;88.56
69543;SHT31;56762;49.494;11.768;2023-09-30T06:25:44;15.00;88.83
69543;SHT31;56762;49.494;11.768;2023-09-30T06:28:15;14.94;88.88
69543;SHT31;56762;49.494;11.768;2023-09-30T06:30:47;14.93;88.82
69543;SHT31;56762;49.494;11.768;2023-09-30T06:33:20;14.90;89.22
69543;SHT31;56762;49.494;11.768;2023-09-30T06:35:48;14.90;89.53
69543;SHT31;56762;49.494;11.768;2023-09-30T06:38:21;14.90;89.53
69543;SHT31;56762;49.494;11.768;2023-09-30T06:40:51;14.90;89.27
69543;SHT31;56762;49.494;11.768;2023-09-30T06:43:23;14.90;89.09
69543;SHT31;56762;49.494;11.768;2023-09-30T06:45:53;14.89;89.08
69543;SHT31;56762;49.494;11.768;2023-09-30T06:48:23;14.86;89.42
69543;SHT31;56762;49.494;11.768;2023-09-30T06:50:51;14.89;89.86
69543;SHT31;56762;49.494;11.768;2023-09-30T06:53:19;14.86;89.10
69543;SHT31;56762;49.494;11.768;2023-09-30T06:55:48;14.86;87.99
69543;SHT31;56762;49.494;11.768;2023-09-30T06:58:17;14.79;88.19
69543;SHT31;56762;49.494;11.768;2023-09-30T07:00:52;14.72;88.52
69543;SHT31;56762;49.494;11.768;2023-09-30T07:03:20;14.72;88.95
69543;SHT31;56762;49.494;11.768;2023-09-30T07:05:55;14.72;88.76
69543;SHT31;56762;49.494;11.768;2023-09-30T07:08:27;14.72;89.14
69543;SHT31;56762;49.494;11.768;2023-09-30T07:10:56;14.70;89.12
69543;SHT31;56762;49.494;11.768;2023-09-30T07:13:24;14.72;87.85
69543;SHT31;56762;49.494;11.768;2023-09-30T07:15:52;14.65;88.78
69543;SHT31;56762;49.494;11.768;2023-09-30T07:18:20;14.65;88.75
69543;SHT31;56762;49.494;11.768;2023-09-30T07:20:48;14.63;89.26
69543;SHT31;56762;49.494;11.768;2023-09-30T07:23:18;14.65;89.56
69543;SHT31;56762;49.494;11.768;2023-09-30T07:25:47;14.62;89.81
69543;SHT31;56762;49.494;11.768;2023-09-30T07:28:15;14.59;89.64
69543;SHT31;56762;49.494;11.768;2023-09-30T07:30:44;14.62;89.92
69543;SHT31;56762;49.494;11.768;2023-09-30T07:33:12;14.62;89.73
69543;SHT31;56762;49.494;11.768;2023-09-30T07:35:40;14.66;89.43
69543;SHT31;56762;49.494;11.768;2023-09-30T07:38:08;14.58;89.32
69543;SHT31;56762;49.494;11.768;2023-09-30T07:40:37;14.59;90.01
69543;SHT31;56762;49.494;11.768;2023-09-30T07:43:05;14.60;89.19
69543;SHT31;56762;49.494;11.768;2023-09-30T07:45:33;14.62;90.16
69543;SHT31;56762;49.494;11.768;2023-09-30T07:48:00;14.66;91.30
69543;SHT31;56762;49.494;11.768;2023-09-30T07:50:31;14.70;91.40
69543;SHT31;56762;49.494;11.768;2023-09-30T07:53:00;14.79;90.12
69543;SHT31;56762;49.494;11.768;2023-09-30T07:55:29;14.81;89.71
69543;SHT31;56762;49.494;11.768;2023-09-30T07:57:58;14.83;88.43
69543;SHT31;56762;49.494;11.768;2023-09-30T08:00:27;14.81;89.86
69543;SHT31;56762;49.494;11.768;2023-09-30T08:02:56;14.86;90.44
69543;SHT31;56762;49.494;11.768;2023-09-30T08:05:27;14.90;90.19
69543;SHT31;56762;49.494;11.768;2023-09-30T08:07:55;14.96;90.97
69543;SHT31;56762;49.494;11.768;2023-09-30T08:10:23;14.96;90.01
69543;SHT31;56762;49.494;11.768;2023-09-30T08:12:51;15.01;89.92
69543;SHT31;56762;49.494;11.768;2023-09-30T08:15:21;15.03;89.87
69543;SHT31;56762;49.494;11.768;2023-09-30T08:17:49;15.06;90.78
69543;SHT31;56762;49.494;11.768;2023-09-30T08:20:17;15.10;91.17
69543;SHT31;56762;49.494;11.768;2023-09-30T08:22:45;15.10;90.28
69543;SHT31;56762;49.494;11.768;2023-09-30T08:25:13;15.12;89.55
69543;SHT31;56762;49.494;11.768;2023-09-30T08:27:41;15.12;90.30
69543;SHT31;56762;49.494;11.768;2023-09-30T08:30:12;15.10;89.45
69543;SHT31;56762;49.494;11.768;2023-09-30T08:32:42;15.11;89.10
69543;SHT31;56762;49.494;11.768;2023-09-30T08:35:09;15.11;88.29
69543;SHT31;56762;49.494;11.768;2023-09-30T08:37:38;15.08;87.66
69543;SHT31;56762;49.494;11.768;2023-09-30T08:40:06;15.10;88.16
69543;SHT31;56762;49.494;11.768;2023-09-30T08:42:38;15.12;88.25
69543;SHT31;56762;49.494;11.768;2023-09-30T08:45:10;15.16;88.36
69543;SHT31;56762;49.494;11.768;2023-09-30T08:47:42;15.18;86.63
69543;SHT31;56762;49.494;11.768;2023-09-30T08:50:10;15.17;86.45
69543;SHT31;56762;49.494;11.768;2023-09-30T08:52:41;15.17;86.19
69543;SHT31;56762;49.494;11.768;2023-09-30T08:55:11;15.20;87.03
69543;SHT31;56762;49.494;11.768;2023-09-30T08:57:41;15.20;86.49
69543;SHT31;56762;49.494;11.768;2023-09-30T09:00:11;15.23;86.55
69543;SHT31;56762;49.494;11.768;2023-09-30T09:02:42;15.27;88.05
69543;SHT31;56762;49.494;11.768;2023-09-30T09:05:10;15.30;86.77
69543;SHT31;56762;49.494;11.768;2023-09-30T09:07:39;15.34;86.85
69543;SHT31;56762;49.494;11.768;2023-09-30T09:10:10;15.37;85.52
69543;SHT31;56762;49.494;11.768;2023-09-30T09:12:40;15.44;85.80
69543;SHT31;56762;49.494;11.768;2023-09-30T09:15:20;15.49;86.41
69543;SHT31;56762;49.494;11.768;2023-09-30T09:17:50;15.54;84.75
69543;SHT31;56762;49.494;11.768;2023-09-30T09:20:21;15.57;84.99
69543;SHT31;56762;49.494;11.768;2023-09-30T09:22:50;15.65;84.46
69543;SHT31;56762;49.494;11.768;2023-09-30T09:25:23;15.66;85.38
69543;SHT31;56762;49.494;11.768;2023-09-30T09:27:52;15.66;83.11
69543;SHT31;56762;49.494;11.768;2023-09-30T09:30:23;15.72;84.24
69543;SHT31;56762;49.494;11.768;2023-09-30T09:32:58;15.79;85.17
69543;SHT31;56762;49.494;11.768;2023-09-30T09:35:27;15.83;84.81
69543;SHT31;56762;49.494;11.768;2023-09-30T09:37:58;15.90;85.18
69543;SHT31;56762;49.494;11.768;2023-09-30T09:40:27;15.95;84.68
69543;SHT31;56762;49.494;11.768;2023-09-30T09:42:56;15.96;84.89
69543;SHT31;56762;49.494;11.768;2023-09-30T09:45:26;15.99;84.16
69543;SHT31;56762;49.494;11.768;2023-09-30T09:48:04;16.00;83.15
69543;SHT31;56762;49.494;11.768;2023-09-30T09:50:34;16.05;83.42
69543;SHT31;56762;49.494;11.768;2023-09-30T09:53:04;16.09;83.91
69543;SHT31;56762;49.494;11.768;2023-09-30T09:55:32;16.13;82.44
69543;SHT31;56762;49.494;11.768;2023-09-30T09:58:02;16.17;81.44
69543;SHT31;56762;49.494;11.768;2023-09-30T10:00:31;16.17;81.61
69543;SHT31;56762;49.494;11.768;2023-09-30T10:03:03;16.23;82.56
69543;SHT31;56762;49.494;11.768;2023-09-30T10:05:31;16.26;78.09
69543;SHT31;56762;49.494;11.768;2023-09-30T10:08:02;16.29;78.77
69543;SHT31;56762;49.494;11.768;2023-09-30T10:10:31;16.29;78.39
69543;SHT31;56762;49.494;11.768;2023-09-30T10:13:03;16.33;78.42
69543;SHT31;56762;49.494;11.768;2023-09-30T10:15:38;16.43;78.43
69543;SHT31;56762;49.494;11.768;2023-09-30T10:18:11;16.46;77.59
69543;SHT31;56762;49.494;11.768;2023-09-30T10:20:43;16.48;76.31
69543;SHT31;56762;49.494;11.768;2023-09-30T10:23:24;16.48;76.86
69543;SHT31;56762;49.494;11.768;2023-09-30T10:26:13;16.54;77.91
69543;SHT31;56762;49.494;11.768;2023-09-30T10:28:45;16.56;76.98
69543;SHT31;56762;49.494;11.768;2023-09-30T10:31:17;16.58;76.26
69543;SHT31;56762;49.494;11.768;2023-09-30T10:34:21;16.60;75.08
69543;SHT31;56762;49.494;11.768;2023-09-30T10:36:49;16.64;76.30
69543;SHT31;56762;49.494;11.768;2023-09-30T10:39:56;16.70;76.69
69543;SHT31;56762;49.494;11.768;2023-09-30T10:42:45;16.71;76.30
69543;SHT31;56762;49.494;11.768;2023-09-30T10:45:44;16.74;76.42
69543;SHT31;56762;49.494;11.768;2023-09-30T10:48:35;16.77;76.36
69543;SHT31;56762;49.494;11.768;2023-09-30T10:51:15;16.78;75.29
69543;SHT31;56762;49.494;11.768;2023-09-30T10:53:47;16.75;75.02
69543;SHT31;56762;49.494;11.768;2023-09-30T10:56:20;16.75;75.77
69543;SHT31;56762;49.494;11.768;2023-09-30T10:58:49;16.75;76.54
69543;SHT31;56762;49.494;11.768;2023-09-30T11:01:18;16.81;74.92
69543;SHT31;56762;49.494;11.768;2023-09-30T11:03:48;16.84;75.10
69543;SHT31;56762;49.494;11.768;2023-09-30T11:06:20;16.84;74.74
69543;SHT31;56762;49.494;11.768;2023-09-30T11:08:52;16.91;75.49
69543;SHT31;56762;49.494;11.768;2023-09-30T11:11:34;16.91;74.61
69543;SHT31;56762;49.494;11.768;2023-09-30T11:14:03;16.95;74.35
69543;SHT31;56762;49.494;11.768;2023-09-30T11:16:41;16.91;74.97
69543;SHT31;56762;49.494;11.768;2023-09-30T11:19:10;16.89;74.26
69543;SHT31;56762;49.494;11.768;2023-09-30T11:21:39;16.91;75.18
69543;SHT31;56762;49.494;11.768;2023-09-30T11:24:08;16.91;75.29
69543;SHT31;56762;49.494;11.768;2023-09-30T11:26:35;16.95;74.79
69543;SHT31;56762;49.494;11.768;2023-09-30T11:29:06;16.92;74.56
69543;SHT31;56762;49.494;11.768;2023-09-30T11:31:37;16.94;75.45
69543;SHT31;56762;49.494;11.768;2023-09-30T11:34:05;16.94;73.57
69543;SHT31;56762;49.494;11.768;2023-09-30T11:36:35;16.95;74.22
69543;SHT31;56762;49.494;11.768;2023-09-30T11:39:04;16.94;75.39
69543;SHT31;56762;49.494;11.768;2023-09-30T11:41:37;16.96;74.55
69543;SHT31;56762;49.494;11.768;2023-09-30T11:44:07;16.92;75.06
69543;SHT31;56762;49.494;11.768;2023-09-30T11:46:50;16.95;75.54
69543;SHT31;56762;49.494;11.768;2023-09-30T11:49:30;16.95;75.70
69543;SHT31;56762;49.494;11.768;2023-09-30T11:51:59;16.98;76.19
69543;SHT31;56762;49.494;11.768;2023-09-30T11:54:32;16.99;75.92
69543;SHT31;56762;49.494;11.768;2023-09-30T11:57:01;16.95;75.49
69543;SHT31;56762;49.494;11.768;2023-09-30T11:59:30;16.94;74.93
69543;SHT31;56762;49.494;11.768;2023-09-30T12:01:58;16.91;75.86
69543;SHT31;56762;49.494;11.768;2023-09-30T12:04:40;16.89;75.97
69543;SHT31;56762;49.494;11.768;2023-09-30T12:07:08;16.92;76.19
69543;SHT31;56762;49.494;11.768;2023-09-30T12:09:38;16.94;76.42
69543;SHT31;56762;49.494;11.768;2023-09-30T12:12:07;16.95;75.37
69543;SHT31;56762;49.494;11.768;2023-09-30T12:14:37;16.94;75.76
69543;SHT31;56762;49.494;11.768;2023-09-30T12:17:05;16.96;75.96
69543;SHT31;56762;49.494;11.768;2023-09-30T12:19:38;16.98;76.25
69543;SHT31;56762;49.494;11.768;2023-09-30T12:22:07;16.99;77.15
69543;SHT31;56762;49.494;11.768;2023-09-30T12:24:37;17.05;76.64
69543;SHT31;56762;49.494;11.768;2023-09-30T12:27:07;17.11;77.06
69543;SHT31;56762;49.494;11.768;2023-09-30T12:29:35;17.15;76.44
69543;SHT31;56762;49.494;11.768;2023-09-30T12:32:05;17.16;76.38
69543;SHT31;56762;49.494;11.768;2023-09-30T12:34:33;17.19;76.76
69543;SHT31;56762;49.494;11.768;2023-09-30T12:37:01;17.22;77.49
69543;SHT31;56762;49.494;11.768;2023-09-30T12:39:29;17.23;75.75
69543;SHT31;56762;49.494;11.768;2023-09-30T12:42:02;17.28;75.70
69543;SHT31;56762;49.494;11.768;2023-09-30T12:44:35;17.28;75.53
69543;SHT31;56762;49.494;11.768;2023-09-30T12:47:03;17.30;74.97
69543;SHT31;56762;49.494;11.768;2023-09-30T12:49:31;17.28;75.01
69543;SHT31;56762;49.494;11.768;2023-09-30T12:51:59;17.32;74.27
69543;SHT31;56762;49.494;11.768;2023-09-30T12:54:27;17.28;74.46
69543;SHT31;56762;49.494;11.768;2023-09-30T12:56:55;17.29;75.51
69543;SHT31;56762;49.494;11.768;2023-09-30T12:59:24;17.29;74.37
69543;SHT31;56762;49.494;11.768;2023-09-30T13:01:52;17.28;74.14
69543;SHT31;56762;49.494;11.768;2023-09-30T13:04:20;17.28;73.93
69543;SHT31;56762;49.494;11.768;2023-09-30T13:06:50;17.26;74.55
69543;SHT31;56762;49.494;11.768;2023-09-30T13:09:18;17.29;74.79
69543;SHT31;56762;49.494;11.768;2023-09-30T13:11:46;17.26;75.16
69543;SHT31;56762;49.494;11.768;2023-09-30T13:14:14;17.29;76.18
69543;SHT31;56762;49.494;11.768;2023-09-30T13:16:43;17.28;74.70
69543;SHT31;56762;49.494;11.768;2023-09-30T13:19:11;17.28;74.77
69543;SHT31;56762;49.494;11.768;2023-09-30T13:21:39;17.25;74.65
69543;SHT31;56762;49.494;11.768;2023-09-30T13:24:08;17.23;75.46
69543;SHT31;56762;49.494;11.768;2023-09-30T13:26:37;17.23;76.06
69543;SHT31;56762;49.494;11.768;2023-09-30T13:29:04;17.19;75.81
69543;SHT31;56762;49.494;11.768;2023-09-30T13:31:32;17.19;76.17
69543;SHT31;56762;49.494;11.768;2023-09-30T13:34:01;17.18;77.34
69543;SHT31;56762;49.494;11.768;2023-09-30T13:36:30;17.14;77.12
69543;SHT31;56762;49.494;11.768;2023-09-30T13:38:58;17.15;76.31
69543;SHT31;56762;49.494;11.768;2023-09-30T13:41:25;17.14;75.88
69543;SHT31;56762;49.494;11.768;2023-09-30T13:43:53;17.16;76.27
69543;SHT31;56762;49.494;11.768;2023-09-30T13:46:21;17.15;76.79
69543;SHT31;56762;49.494;11.768;2023-09-30T13:48:51;17.15;76.91
69543;SHT31;56762;49.494;11.768;2023-09-30T13:51:20;17.16;76.14
69543;SHT31;56762;49.494;11.768;2023-09-30T13:53:49;17.16;76.33
69543;SHT31;56762;49.494;11.768;2023-09-30T13:56:17;17.19;76.30
69543;SHT31;56762;49.494;11.768;2023-09-30T13:58:44;17.18;77.22
69543;SHT31;56762;49.494;11.768;2023-09-30T14:01:13;17.23;78.06
69543;SHT31;56762;49.494;11.768;2023-09-30T14:03:41;17.22;77.76
69543;SHT31;56762;49.494;11.768;2023-09-30T14:06:10;17.23;77.01
69543;SHT31;56762;49.494;11.768;2023-09-30T14:08:40;17.22;75.85
69543;SHT31;56762;49.494;11.768;2023-09-30T14:11:09;17.28;74.95
69543;SHT31;56762;49.494;11.768;2023-09-30T14:13:38;17.30;74.73
69543;SHT31;56762;49.494;11.768;2023-09-30T14:16:06;17.35;75.04
69543;SHT31;56762;49.494;11.768;2023-09-30T14:18:34;17.32;74.83
69543;SHT31;56762;49.494;11.768;2023-09-30T14:21:03;17.35;75.76
69543;SHT31;56762;49.494;11.768;2023-09-30T14:23:31;17.38;75.59
69543;SHT31;56762;49.494;11.768;2023-09-30T14:25:59;17.40;74.58
69543;SHT31;56762;49.494;11.768;2023-09-30T14:28:31;17.36;73.35
69543;SHT31;56762;49.494;11.768;2023-09-30T14:31:02;17.38;72.08
69543;SHT31;56762;49.494;11.768;2023-09-30T14:33:31;17.40;71.65
69543;SHT31;56762;49.494;11.768;2023-09-30T14:36:02;17.42;73.31
69543;SHT31;56762;49.494;11.768;2023-09-30T14:38:32;17.43;73.85
69543;SHT31;56762;49.494;11.768;2023-09-30T14:41:06;17.46;72.39
69543;SHT31;56762;49.494;11.768;2023-09-30T14:43:34;17.46;71.99
69543;SHT31;56762;49.494;11.768;2023-09-30T14:46:02;17.47;71.89
69543;SHT31;56762;49.494;11.768;2023-09-30T14:48:30;17.49;72.49
69543;SHT31;56762;49.494;11.768;2023-09-30T14:50:58;17.51;71.77
69543;SHT31;56762;49.494;11.768;2023-09-30T14:53:25;17.51;71.76
69543;SHT31;56762;49.494;11.768;2023-09-30T14:55:53;17.54;72.40
69543;SHT31;56762;49.494;11.768;2023-09-30T14:58:22;17.51;73.61
69543;SHT31;56762;49.494;11.768;2023-09-30T15:00:50;17.51;73.92
69543;SHT31;56762;49.494;11.768;2023-09-30T15:03:18;17.47;72.15
69543;SHT31;56762;49.494;11.768;2023-09-30T15:05:48;17.45;73.96
69543;SHT31;56762;49.494;11.768;2023-09-30T15:08:16;17.45;72.96
69543;SHT31;56762;49.494;11.768;2023-09-30T15:10:45;17.45;73.41
69543;SHT31;56762;49.494;11.768;2023-09-30T15:13:12;17.43;75.20
69543;SHT31;56762;49.494;11.768;2023-09-30T15:15:42;17.39;75.10
69543;SHT31;56762;49.494;11.768;2023-09-30T15:18:09;17.39;74.38
69543;SHT31;56762;49.494;11.768;2023-09-30T15:20:38;17.39;71.71
69543;SHT31;56762;49.494;11.768;2023-09-30T15:23:06;17.40;74.63
69543;SHT31;56762;49.494;11.768;2023-09-30T15:25:39;17.40;74.35
69543;SHT31;56762;49.494;11.768;2023-09-30T15:28:08;17.39;76.23
69543;SHT31;56762;49.494;11.768;2023-09-30T15:30:36;17.36;74.46
69543;SHT31;56762;49.494;11.768;2023-09-30T15:33:05;17.35;73.47